PAA25 KEWR-EKCH
Flight info
| Callsign | PAA25 |
|---|---|
| Flight time | N/A |
| Altitude | 33000 |
| Route | MERIT DCT HFD DCT PUT DCT EBONY DCT HOIST/M085F350 DCT 59N050W 62N040W 63N030W/M085F370 64N020W 63N010W DCT VALDI/N0490F390 DCT TESPI |
| Aircraft | B742/H-SDFHIRWXY/L |
Departure
| Time | 2026-04-20 23:57 |
|---|---|
| Airport | Newark Liberty International Airport (KEWR) |
Arrival
| Time | N/A |
|---|---|
| Airport | Copenhagen Kastrup Airport (EKCH) |
| Time | Latitude | Longitude | Altitude | Speed | Heading |
|---|---|---|---|---|---|
| 2026-04-20 23:20 | 40.68355 | -74.18182 | 26 ft | 0 kts | 274° |
| 2026-04-20 23:41 | 40.68354 | -74.18170 | 25 ft | 2 kts | 274° |
| 2026-04-20 23:41 | 40.68353 | -74.18150 | 25 ft | 2 kts | 274° |
| 2026-04-20 23:42 | 40.68352 | -74.18130 | 25 ft | 2 kts | 274° |
| 2026-04-20 23:42 | 40.68351 | -74.18117 | 25 ft | 2 kts | 274° |
| 2026-04-20 23:42 | 40.68351 | -74.18105 | 25 ft | 2 kts | 269° |
| 2026-04-20 23:42 | 40.68356 | -74.18091 | 25 ft | 1 kts | 207° |
| 2026-04-20 23:43 | 40.68362 | -74.18089 | 25 ft | 0 kts | 185° |
| 2026-04-20 23:43 | 40.68365 | -74.18089 | 25 ft | 0 kts | 181° |
| 2026-04-20 23:47 | 40.68363 | -74.18089 | 25 ft | 1 kts | 181° |
| 2026-04-20 23:48 | 40.68347 | -74.18089 | 25 ft | 5 kts | 181° |
| 2026-04-20 23:48 | 40.68283 | -74.18085 | 25 ft | 12 kts | 172° |
| 2026-04-20 23:48 | 40.68182 | -74.18037 | 25 ft | 17 kts | 141° |
| 2026-04-20 23:48 | 40.68108 | -74.17924 | 25 ft | 14 kts | 127° |
| 2026-04-20 23:49 | 40.68033 | -74.17834 | 25 ft | 15 kts | 166° |
| 2026-04-20 23:49 | 40.67923 | -74.17851 | 25 ft | 16 kts | 204° |
| 2026-04-20 23:49 | 40.67815 | -74.17918 | 25 ft | 17 kts | 206° |
| 2026-04-20 23:49 | 40.67684 | -74.18006 | 25 ft | 14 kts | 208° |
| 2026-04-20 23:50 | 40.67643 | -74.18030 | 25 ft | 0 kts | 195° |
| 2026-04-20 23:55 | 40.67640 | -74.18031 | 25 ft | 2 kts | 194° |
| 2026-04-20 23:55 | 40.67603 | -74.18024 | 25 ft | 8 kts | 152° |
| 2026-04-20 23:55 | 40.67590 | -74.17913 | 25 ft | 11 kts | 36° |
| 2026-04-20 23:56 | 40.67651 | -74.17876 | 25 ft | 24 kts | 21° |
| 2026-04-20 23:56 | 40.68010 | -74.17651 | 25 ft | 84 kts | 26° |
| 2026-04-20 23:56 | 40.68662 | -74.17233 | 26 ft | 123 kts | 24° |
| 2026-04-20 23:56 | 40.69545 | -74.16643 | 50 ft | 158 kts | 26° |
| 2026-04-20 23:57 | 40.70497 | -74.15880 | 401 ft | 159 kts | 28° |
| 2026-04-20 23:57 | 40.71437 | -74.15102 | 812 ft | 160 kts | 27° |
| 2026-04-20 23:57 | 40.72375 | -74.14316 | 1240 ft | 158 kts | 27° |
| 2026-04-20 23:57 | 40.73646 | -74.13257 | 1859 ft | 174 kts | 26° |
| 2026-04-20 23:58 | 40.74365 | -74.12683 | 2247 ft | 189 kts | 25° |
| 2026-04-20 23:58 | 40.75588 | -74.11728 | 2858 ft | 215 kts | 29° |
| 2026-04-20 23:58 | 40.76891 | -74.10676 | 3637 ft | 230 kts | 27° |
| 2026-04-20 23:58 | 40.78270 | -74.09498 | 4511 ft | 245 kts | 41° |
| 2026-04-20 23:59 | 40.79310 | -74.07591 | 5120 ft | 272 kts | 56° |
| 2026-04-20 23:59 | 40.80306 | -74.05309 | 5579 ft | 304 kts | 57° |
| 2026-04-20 23:59 | 40.81425 | -74.02768 | 6040 ft | 336 kts | 57° |
| 2026-04-20 23:59 | 40.82371 | -73.99805 | 6604 ft | 366 kts | 74° |
| 2026-04-21 00:00 | 40.82666 | -73.96435 | 7248 ft | 374 kts | 90° |
| 2026-04-21 00:00 | 40.82265 | -73.93014 | 7821 ft | 382 kts | 103° |
| 2026-04-21 00:00 | 40.81817 | -73.89528 | 8215 ft | 392 kts | 91° |
| 2026-04-21 00:00 | 40.82052 | -73.85922 | 8589 ft | 403 kts | 76° |
| 2026-04-21 00:01 | 40.83002 | -73.82362 | 8747 ft | 409 kts | 61° |
| 2026-04-21 00:01 | 40.84547 | -73.79340 | 8896 ft | 379 kts | 45° |
| 2026-04-21 00:01 | 40.86406 | -73.77119 | 9294 ft | 346 kts | 34° |
| 2026-04-21 00:01 | 40.88293 | -73.75331 | 9668 ft | 319 kts | 30° |
| 2026-04-21 00:02 | 40.90147 | -73.73792 | 9906 ft | 316 kts | 27° |
| 2026-04-21 00:02 | 40.92041 | -73.72275 | 9960 ft | 316 kts | 27° |
| 2026-04-21 00:02 | 40.93946 | -73.70744 | 9974 ft | 328 kts | 28° |
| 2026-04-21 00:02 | 40.95929 | -73.69094 | 9971 ft | 333 kts | 29° |
| 2026-04-21 00:03 | 40.97788 | -73.67236 | 9974 ft | 335 kts | 43° |
| 2026-04-21 00:03 | 40.99169 | -73.64750 | 9979 ft | 341 kts | 60° |
| 2026-04-21 00:03 | 40.99957 | -73.61758 | 9978 ft | 344 kts | 78° |
| 2026-04-21 00:03 | 41.00045 | -73.58594 | 9972 ft | 345 kts | 96° |
| 2026-04-21 00:04 | 40.99423 | -73.55507 | 9975 ft | 347 kts | 114° |
| 2026-04-21 00:04 | 40.98173 | -73.52829 | 9976 ft | 344 kts | 132° |
| 2026-04-21 00:04 | 40.96387 | -73.50748 | 9975 ft | 339 kts | 150° |
| 2026-04-21 00:04 | 40.94264 | -73.49448 | 9983 ft | 335 kts | 164° |
| 2026-04-21 00:05 | 40.92011 | -73.48525 | 9980 ft | 334 kts | 166° |
| 2026-04-21 00:05 | 40.89756 | -73.47620 | 9973 ft | 335 kts | 161° |
| 2026-04-21 00:05 | 40.87717 | -73.46084 | 10074 ft | 339 kts | 142° |
| 2026-04-21 00:05 | 40.86105 | -73.43764 | 10270 ft | 347 kts | 124° |
| 2026-04-21 00:06 | 40.85063 | -73.40864 | 10462 ft | 350 kts | 106° |
| 2026-04-21 00:06 | 40.84707 | -73.37690 | 10655 ft | 353 kts | 88° |
| 2026-04-21 00:06 | 40.85059 | -73.34508 | 10847 ft | 351 kts | 71° |
| 2026-04-21 00:06 | 40.86106 | -73.31585 | 11104 ft | 348 kts | 53° |
| 2026-04-21 00:07 | 40.87722 | -73.29247 | 11392 ft | 346 kts | 35° |
| 2026-04-21 00:07 | 40.89718 | -73.27510 | 11687 ft | 342 kts | 27° |
| 2026-04-21 00:07 | 40.91793 | -73.25947 | 11974 ft | 343 kts | 26° |
| 2026-04-21 00:07 | 40.93886 | -73.24396 | 12348 ft | 343 kts | 26° |
| 2026-04-21 00:08 | 40.95979 | -73.22849 | 12807 ft | 344 kts | 26° |
| 2026-04-21 00:08 | 40.98084 | -73.21293 | 13264 ft | 347 kts | 26° |
| 2026-04-21 00:08 | 41.00188 | -73.19738 | 13719 ft | 350 kts | 26° |
| 2026-04-21 00:08 | 41.02340 | -73.18147 | 14180 ft | 352 kts | 26° |
| 2026-04-21 00:09 | 41.04483 | -73.16561 | 14640 ft | 353 kts | 26° |
| 2026-04-21 00:09 | 41.06642 | -73.14964 | 15103 ft | 355 kts | 26° |
| 2026-04-21 00:09 | 41.09555 | -73.12805 | 15723 ft | 358 kts | 26° |
| 2026-04-21 00:09 | 41.11017 | -73.11722 | 16035 ft | 360 kts | 26° |
| 2026-04-21 00:10 | 41.13215 | -73.10091 | 16496 ft | 362 kts | 26° |
| 2026-04-21 00:10 | 41.15441 | -73.08436 | 16965 ft | 364 kts | 26° |
| 2026-04-21 00:10 | 41.17653 | -73.06792 | 17426 ft | 367 kts | 26° |
| 2026-04-21 00:10 | 41.19911 | -73.05111 | 17896 ft | 369 kts | 26° |
| 2026-04-21 00:11 | 41.22184 | -73.03419 | 18364 ft | 371 kts | 26° |
| 2026-04-21 00:11 | 41.24416 | -73.01756 | 18822 ft | 373 kts | 26° |
| 2026-04-21 00:11 | 41.26710 | -73.00045 | 19290 ft | 375 kts | 26° |
| 2026-04-21 00:11 | 41.29011 | -72.98328 | 19755 ft | 377 kts | 26° |
| 2026-04-21 00:12 | 41.31286 | -72.96631 | 20212 ft | 379 kts | 26° |
| 2026-04-21 00:12 | 41.33590 | -72.94909 | 20676 ft | 380 kts | 26° |
| 2026-04-21 00:12 | 41.35896 | -72.93187 | 21134 ft | 382 kts | 26° |
| 2026-04-21 00:12 | 41.38206 | -72.91458 | 21592 ft | 382 kts | 26° |
| 2026-04-21 00:13 | 41.40553 | -72.89701 | 22058 ft | 383 kts | 26° |
| 2026-04-21 00:13 | 41.42844 | -72.87985 | 22511 ft | 383 kts | 26° |
| 2026-04-21 00:13 | 41.45180 | -72.86235 | 22974 ft | 383 kts | 25° |
| 2026-04-21 00:13 | 41.47478 | -72.84512 | 23381 ft | 384 kts | 25° |
| 2026-04-21 00:14 | 41.49829 | -72.82725 | 23676 ft | 388 kts | 28° |
| 2026-04-21 00:14 | 41.51983 | -72.80553 | 23974 ft | 395 kts | 40° |
| 2026-04-21 00:14 | 41.53824 | -72.77804 | 24279 ft | 401 kts | 50° |
| 2026-04-21 00:14 | 41.55402 | -72.74756 | 24582 ft | 406 kts | 55° |
| 2026-04-21 00:15 | 41.56872 | -72.71532 | 24866 ft | 409 kts | 57° |
| 2026-04-21 00:15 | 41.58306 | -72.68241 | 25146 ft | 412 kts | 57° |
| 2026-04-21 00:15 | 41.59753 | -72.64893 | 25427 ft | 415 kts | 57° |
| 2026-04-21 00:15 | 41.61191 | -72.61573 | 25709 ft | 417 kts | 57° |
| 2026-04-21 00:16 | 41.62650 | -72.58218 | 25986 ft | 420 kts | 57° |
| 2026-04-21 00:16 | 41.64113 | -72.54858 | 26262 ft | 422 kts | 57° |